Friday, February 27, 2015
04:03 UTC
  |  Log In   |  Register Free
Airport Search:

Fairfield County Airport
(KFDW)

Fairfield County Airport Diagram
No Airport Diagram Available

FAA data valid effective January 08, 2015 - March 05, 2015 (unless otherwise noted).

 
 
 
 
 
 
 
 
 
 
 
 
 
 

Current Aviation Weather for Fairfield County Airport (KFDW)

The most recent METAR observation for KFDW was updated at: 0311
METAR Summary (Translated METAR)
KFDW
270255Z AUTO 11004KT 10SM CLR 02/01 A3014 RMK AO1
KCUB
270253Z AUTO 00000KT 5SM BR CLR 02/01 A3016 RMK AO2 SLP213 T00220006 53034
(21.5 nm SE from KFDW)
KCAE
270256Z 07003KT 10SM SCT200 04/02 A3015 RMK AO2 SLP209 T00390017 53034
(22.6 nm SW from KFDW)
TAF Summary (Translated TAF)
KCUB
(21.5 nm SE from KFDW)
262213Z 2622/2718 VRB03KT P6SM SCT020 OVC030 TEMPO 2623/2701 OVC020 FM270100 VRB03KT P6SM BKN015 OVC020 FM271500 36005KT P6SM BKN025
KCAE
(22.6 nm SW from KFDW)
262213Z 2622/2718 35005KT P6SM SCT020 OVC030 TEMPO 2623/2701 OVC020 FM270100 VRB04KT P6SM BKN015 OVC020 FM271500 01005KT P6SM BKN025
  Airport Weather Conditions for KFDW

 Current Weather at FDW
36° F
Fair
East winds at 4.6 mph
FDW NOAA Radar

Pressure: 30.14 in
Humidity: 93%
Wind: East at 4.6 MPH (4 KT)
Dew Point: 33.8°F
Visibility: 10.00 mi


Airport Weather Forecast for KFDW

Translated METAR and TAF for KFDW
Translated METAR for KFDW (0403 UTC 27 February 2015)
found at http://aviationweather.gov/adds/metars/
 
METAR text: KFDW 270355Z AUTO 10004KT 10SM SCT036 01/01 A3015 RMK AO1
Conditions at: KFDW (WINNSBORO , SC, US) observed 0355 UTC 27 February 2015
Temperature: 1.0°C (34°F)
Dewpoint: 1.0°C (34°F) [RH = 100%]
Pressure (altimeter): 30.15 inches Hg (1021.1 mb)
Winds: from the E (100 degrees) at 5 MPH (4 knots; 2.1 m/s)
Visibility: 10 or more miles (16+ km)
Ceiling: at least 12,000 feet AGL
Clouds: scattered clouds at 3600 feet AGL
Weather: automated observation with no human augmentation;
there may or may not be significant weather present at this time
Translated TAF for KFDW

There is no translated TAF available for this airport

Find All Airport Services Find A Hotel Find A Rental Car Find A Golf Course Find A Restaurant $100 Hamburger



FBO's on the Field
FBO Company Facility Photos Services Transportation Aviation Fuel Prices: Prices include tax
Catering Weather Repair Courtesy Rental Type 100LL JetA JetA+ MOGAS 8087
 
S & S Aviation Services

This FBO has not yet been rated
FS:Shell
Last Updated: Jan-28
Login to update fuel prices
SS:
Contact S & S Aviation ServicesMore FBO Information
 
Add another FBO Facility Photos Catering Weather Repair Courtesy Rental Type 100LL JetA JetA+ MOGAS 8087
Services Transportation Aviation Fuel Prices: Prices include tax


model-print
model-print
model-print
model-print